createdAt,value
2023-12-29T00:02:07.965Z,0.30
2023-12-29T00:07:09.714Z,0.30
2023-12-29T00:12:11.648Z,0.50
2023-12-29T00:17:13.562Z,0.32
2023-12-29T00:22:15.239Z,0.40
2023-12-29T00:27:16.876Z,0.38
2023-12-29T00:32:18.458Z,0.38
2023-12-29T00:37:20.062Z,0.20
2023-12-29T00:42:21.628Z,0.47
2023-12-29T00:47:24.889Z,0.30
2023-12-29T00:52:26.515Z,0.22
2023-12-29T00:57:28.139Z,0.28
2023-12-29T01:02:29.689Z,0.77
2023-12-29T01:07:31.259Z,0.32
2023-12-29T01:12:33.385Z,0.60
2023-12-29T01:17:35.151Z,0.50
2023-12-29T01:22:36.748Z,0.40
2023-12-29T01:27:38.362Z,0.32
2023-12-29T01:32:40.021Z,0.43
2023-12-29T01:37:41.642Z,0.25
2023-12-29T01:42:43.261Z,0.55
2023-12-29T01:47:45.091Z,0.68
2023-12-29T01:52:48.730Z,0.50
2023-12-29T01:57:51.216Z,0.55
2023-12-29T02:02:52.884Z,0.47
2023-12-29T02:07:55.133Z,1.73
2023-12-29T02:13:00.605Z,0.40
2023-12-29T02:18:04.212Z,0.50
2023-12-29T02:23:06.099Z,0.50
2023-12-29T02:28:07.820Z,0.70
2023-12-29T02:33:11.529Z,0.50
2023-12-29T02:38:13.940Z,0.60
2023-12-29T02:43:15.790Z,0.50
2023-12-29T02:48:17.543Z,0.73
2023-12-29T02:53:19.216Z,0.50
2023-12-29T02:58:21.185Z,1.10
2023-12-29T03:03:22.941Z,0.98
2023-12-29T03:08:24.579Z,0.73
2023-12-29T03:13:26.452Z,0.88
2023-12-29T03:18:28.213Z,1.02
2023-12-29T03:23:29.891Z,0.82
2023-12-29T03:28:31.570Z,0.75
2023-12-29T03:33:33.269Z,0.75
2023-12-29T03:38:34.989Z,0.70
2023-12-29T03:43:36.588Z,0.55
2023-12-29T03:48:38.406Z,0.73
2023-12-29T03:53:40.027Z,0.57
2023-12-29T03:58:41.698Z,0.57
2023-12-29T04:03:44.020Z,1.23
2023-12-29T04:08:45.652Z,0.95
2023-12-29T04:13:47.669Z,0.95
2023-12-29T04:18:49.611Z,0.55
2023-12-29T04:23:51.293Z,0.50
2023-12-29T04:28:52.867Z,0.70
2023-12-29T04:33:54.527Z,0.45
2023-12-29T04:38:56.156Z,0.47
2023-12-29T04:43:57.760Z,0.45
2023-12-29T04:48:59.487Z,0.50
2023-12-29T04:54:01.190Z,0.50
2023-12-29T04:59:02.904Z,0.30
2023-12-29T05:04:04.625Z,0.25
2023-12-29T05:09:06.243Z,0.35
2023-12-29T05:14:08.083Z,0.45
2023-12-29T05:19:09.902Z,0.50
2023-12-29T05:24:11.820Z,0.10
2023-12-29T05:29:13.409Z,0.20
2023-12-29T05:34:15.074Z,0.30
2023-12-29T05:39:16.743Z,0.20
2023-12-29T05:44:18.328Z,0.20
2023-12-29T05:49:19.993Z,0.20
2023-12-29T05:54:21.659Z,0.28
2023-12-29T05:59:23.314Z,0.20
2023-12-29T06:04:24.946Z,0.40
2023-12-29T06:09:26.963Z,0.30
2023-12-29T06:14:28.646Z,0.10
2023-12-29T06:19:30.369Z,0.35
2023-12-29T06:24:34.028Z,0.50
2023-12-29T06:29:35.784Z,0.20
2023-12-29T06:34:37.464Z,0.30
2023-12-29T06:39:41.221Z,0.55
2023-12-29T06:44:42.903Z,0.50
2023-12-29T06:49:44.756Z,0.40
2023-12-29T06:54:46.454Z,0.22
2023-12-29T06:59:48.078Z,0.40
2023-12-29T07:04:49.631Z,0.52
2023-12-29T07:09:51.231Z,0.55
2023-12-29T07:14:54.526Z,0.47
2023-12-29T07:19:56.703Z,0.57
2023-12-29T07:24:58.305Z,0.35
2023-12-29T07:29:59.932Z,0.73
2023-12-29T07:35:01.708Z,0.45
2023-12-29T07:40:04.924Z,0.52
2023-12-29T07:45:06.992Z,0.77
2023-12-29T07:50:08.671Z,0.70
2023-12-29T07:55:10.370Z,0.80
2023-12-29T08:00:12.203Z,0.63
2023-12-29T08:05:13.792Z,0.47
2023-12-29T08:10:15.496Z,0.50
2023-12-29T08:15:18.403Z,0.68
2023-12-29T08:20:21.922Z,0.50
2023-12-29T08:25:24.036Z,0.70
2023-12-29T08:30:25.692Z,0.38
2023-12-29T08:35:27.267Z,0.57
2023-12-29T08:40:29.083Z,0.85
2023-12-29T08:45:30.970Z,0.88
2023-12-29T08:50:32.650Z,0.65
2023-12-29T08:55:34.277Z,0.35
2023-12-29T09:00:35.934Z,0.65
2023-12-29T09:05:37.652Z,0.60
2023-12-29T09:10:39.960Z,0.60
2023-12-29T09:15:41.920Z,0.80
2023-12-29T09:20:43.835Z,0.35
2023-12-29T09:25:45.712Z,0.60
2023-12-29T09:30:47.416Z,0.57
2023-12-29T09:35:49.023Z,0.57
2023-12-29T09:40:51.958Z,0.90
2023-12-29T09:45:53.702Z,1.20
2023-12-29T09:50:55.684Z,0.47
2023-12-29T09:55:58.446Z,0.73
2023-12-29T10:01:00.342Z,0.90
2023-12-29T10:06:04.781Z,0.77
2023-12-29T10:11:07.073Z,0.90
2023-12-29T10:16:20.984Z,0.93
2023-12-29T10:21:29.520Z,1.20
2023-12-29T10:26:31.341Z,0.80
2023-12-29T10:31:33.014Z,0.90
2023-12-29T10:36:47.319Z,1.10
2023-12-29T10:41:48.953Z,0.65
2023-12-29T10:46:51.252Z,0.95
2023-12-29T10:51:52.988Z,0.80
2023-12-29T10:57:04.233Z,1.25
2023-12-29T11:02:07.367Z,0.93
2023-12-29T11:07:12.811Z,1.48
2023-12-29T11:12:15.323Z,1.02
2023-12-29T11:17:17.207Z,0.90
2023-12-29T11:22:19.222Z,1.05
2023-12-29T11:27:21.187Z,1.20
2023-12-29T11:32:26.444Z,1.08
2023-12-29T11:37:46.954Z,1.27
2023-12-29T11:47:55.005Z,1.38
2023-12-29T11:52:56.837Z,1.58
2023-12-29T11:57:59.127Z,0.93
2023-12-29T12:03:01.165Z,1.10
2023-12-29T12:08:03.031Z,1.05
2023-12-29T12:13:05.197Z,1.05
2023-12-29T12:18:09.468Z,1.02
2023-12-29T12:23:23.159Z,1.08
2023-12-29T12:28:24.891Z,1.58
2023-12-29T12:33:26.829Z,1.02
2023-12-29T12:38:31.704Z,1.30
2023-12-29T12:43:34.632Z,1.20
2023-12-29T12:48:36.368Z,1.02
2023-12-29T12:53:41.972Z,1.38
2023-12-29T12:58:44.037Z,0.70
2023-12-29T13:03:46.752Z,3.45
2023-12-29T13:08:53.158Z,1.35
2023-12-29T13:13:58.222Z,1.13
2023-12-29T13:19:15.950Z,1.27
2023-12-29T13:24:18.177Z,0.75
2023-12-29T13:29:23.415Z,0.98
2023-12-29T13:34:51.124Z,1.23
2023-12-29T13:39:58.742Z,0.70
2023-12-29T13:45:01.226Z,0.88
2023-12-29T13:50:04.006Z,1.10
2023-12-29T13:55:05.985Z,1.38
2023-12-29T14:00:23.437Z,1.10
2023-12-29T14:05:37.069Z,1.40
2023-12-29T14:10:38.837Z,1.48
2023-12-29T14:15:41.262Z,1.23
2023-12-29T14:20:42.858Z,0.88
2023-12-29T14:25:44.981Z,1.15
2023-12-29T14:30:47.186Z,1.65
2023-12-29T14:35:48.985Z,0.95
2023-12-29T14:40:50.594Z,1.15
2023-12-29T14:45:52.194Z,1.00
2023-12-29T14:50:53.794Z,1.33
2023-12-29T14:55:55.345Z,1.25
2023-12-29T15:00:57.108Z,1.40
2023-12-29T15:05:59.628Z,1.17
2023-12-29T15:11:08.296Z,1.10
2023-12-29T15:16:11.516Z,0.80
2023-12-29T15:21:13.231Z,0.88
2023-12-29T15:26:16.766Z,1.33
2023-12-29T15:31:19.735Z,1.20
2023-12-29T15:36:25.131Z,1.27
2023-12-29T15:41:26.783Z,1.20
2023-12-29T15:46:28.411Z,1.45
2023-12-29T15:51:31.496Z,1.27
2023-12-29T15:56:33.092Z,1.23
2023-12-29T16:01:36.486Z,1.33
2023-12-29T16:06:39.744Z,1.38
2023-12-29T16:11:41.619Z,1.27
2023-12-29T16:16:44.449Z,1.20
2023-12-29T16:21:46.226Z,1.45
2023-12-29T16:26:48.554Z,1.33
2023-12-29T16:31:50.390Z,1.05
2023-12-29T16:36:57.008Z,1.33
2023-12-29T16:41:59.014Z,1.23
2023-12-29T16:47:00.550Z,1.88
2023-12-29T16:52:03.046Z,1.02
2023-12-29T16:57:04.913Z,1.08
2023-12-29T17:02:08.925Z,1.00
2023-12-29T17:07:11.006Z,1.63
2023-12-29T17:12:12.881Z,1.73
2023-12-29T17:17:14.623Z,1.52
2023-12-29T17:22:19.371Z,1.35
2023-12-29T17:27:21.024Z,1.45
2023-12-29T17:32:24.333Z,1.23
2023-12-29T17:37:33.072Z,1.30
2023-12-29T17:42:34.866Z,1.75
2023-12-29T17:47:36.425Z,2.08
2023-12-29T17:52:38.646Z,2.15
2023-12-29T17:57:42.340Z,1.88
2023-12-29T18:02:43.942Z,2.75
2023-12-29T18:07:45.574Z,2.45
2023-12-29T18:12:47.910Z,2.22
2023-12-29T18:17:49.755Z,2.15
2023-12-29T18:22:51.820Z,3.05
2023-12-29T18:27:53.505Z,2.80
2023-12-29T18:32:56.305Z,4.10
2023-12-29T18:37:58.009Z,3.42
2023-12-29T18:43:00.994Z,4.00
2023-12-29T18:48:03.120Z,3.30
2023-12-29T18:53:05.625Z,2.92
2023-12-29T18:58:07.216Z,1.92
2023-12-29T19:03:08.809Z,2.58
2023-12-29T19:08:10.409Z,2.35
2023-12-29T19:13:12.300Z,2.30
2023-12-29T19:18:14.290Z,2.60
2023-12-29T19:23:15.952Z,2.50
2023-12-29T19:28:17.518Z,2.78
2023-12-29T19:33:19.223Z,1.90
2023-12-29T19:38:21.078Z,2.67
2023-12-29T19:43:22.667Z,2.63
2023-12-29T19:48:24.313Z,2.03
2023-12-29T19:53:25.950Z,2.47
2023-12-29T19:58:27.662Z,1.95
2023-12-29T20:03:32.779Z,2.35
2023-12-29T20:08:34.613Z,2.15
2023-12-29T20:13:36.728Z,2.33
2023-12-29T20:18:38.435Z,4.22
2023-12-29T20:23:42.261Z,4.40
2023-12-29T20:28:44.338Z,3.78
2023-12-29T20:33:46.227Z,2.08
2023-12-29T20:39:00.137Z,2.60
2023-12-29T20:44:01.999Z,2.20
2023-12-29T20:49:03.720Z,2.03
2023-12-29T20:54:05.600Z,1.88
2023-12-29T20:59:07.186Z,1.83
2023-12-29T21:04:12.577Z,1.63
2023-12-29T21:09:14.243Z,1.88
2023-12-29T21:14:16.488Z,2.38
2023-12-29T21:19:18.225Z,2.10
2023-12-29T21:24:19.828Z,2.45
2023-12-29T21:29:21.517Z,1.98
2023-12-29T21:34:23.183Z,1.58
2023-12-29T21:39:24.796Z,3.28
2023-12-29T21:44:26.782Z,3.08
2023-12-29T21:49:28.532Z,1.92
2023-12-29T21:54:30.243Z,1.90
2023-12-29T21:59:31.882Z,2.35
2023-12-29T22:04:33.531Z,1.77
2023-12-29T22:09:35.135Z,1.60
2023-12-29T22:14:37.268Z,2.17
2023-12-29T22:19:40.504Z,3.15
2023-12-29T22:24:42.131Z,2.22
2023-12-29T22:29:43.710Z,2.20
2023-12-29T22:34:45.859Z,6.18
2023-12-29T22:39:47.606Z,4.32
2023-12-29T22:44:49.222Z,3.63
2023-12-29T22:49:50.925Z,2.38
2023-12-29T22:54:52.540Z,2.20
2023-12-29T22:59:54.131Z,1.95
2023-12-29T23:04:55.723Z,2.20
2023-12-29T23:09:57.387Z,2.38
2023-12-29T23:14:59.109Z,1.95
2023-12-29T23:20:00.959Z,2.38
2023-12-29T23:25:02.850Z,2.95
2023-12-29T23:30:05.128Z,1.90
2023-12-29T23:35:14.206Z,1.98
2023-12-29T23:40:21.819Z,2.47
2023-12-29T23:45:23.529Z,1.98
2023-12-29T23:50:25.136Z,2.38
2023-12-29T23:55:29.542Z,1.77
